Allentown, New Jersey
Current Conditions -  °F | °C
As of 6:58 AM on Thursday 29 Jan 2015 (Local Time) from KWRI Reporting Station
Clear Clear  
Wind Chill: -12°   Ceiling: Unl
Heat Index: -12°   Visibility: 10mi
Dew Point: -16°   Wind: 2mph
Humidity: 71%   Direction: 310°NW
Pressure: 30.31"   Gusts: NA
Location:  40.18°N, 74.58°W
Report Text: KWRI 291158Z AUTO 31002KT 10SM CLR M12/M16 A3031 RMK AO2 SLP270 T11171160 11071 21136 50012
Loading
Personal Weather Stations






























Interactive Weather Map New forecast layout! Learn more

10-Day Weather Forecast

Advertisements
Track Severe Weather on mobile